Rechercher aéroport 
image banner adimage banner ad
image banner ad

FYWITB - Witbooisvley

Situé à , Namibia

ICAO - , IATA -

Données fournies par Airmate  

Information générale

Coordonnées: S25°4'8" E18°27'6"
Élévation : 3812 feet MSL.
 
Voir autres Aéroports à Hardap

Données opérationnelles

Accessible au public
Heure actuelle UTC:
Heure actuelle locale:
Météo à : FYML - Mariental ( 74 km )
METAR: FYML 260300Z AUTO 10007KT //// // ////// 25/19 Q1016
Voir NOTAMs / SUP AIP / TFR affectant cet aéroport [VIEW]
Fréquences de communication: [VIEW]

Pistes:

Coordonnées de l'aéroport

Adresse: Namibia

Vue satellite de FYWITB